Time;durP1;ratioP1;P1;durP2;ratioP2;P2;SDS_P1;SDS_P2;PMS_P1;PMS_P2;Temp;Humidity;BMP_temperature;BMP_pressure;BME280_temperature;BME280_humidity;BME280_pressure;Samples;Min_cycle;Max_cycle;Signal;HPM_P1;HPM_P2
2021/01/29 00:00:29;;;;;;;11.38;5.85;;;;;;;-3.41;84.15;100155.97;5032356;28;20056;-66
2021/01/29 00:02:55;;;;;;;11.32;4.43;;;;;;;-3.46;84.28;100165.00;5032262;28;20091;-66
2021/01/29 00:05:24;;;;;;;11.35;4.43;;;;;;;-3.48;84.64;100154.66;5032234;28;20040;-66
2021/01/29 00:07:49;;;;;;;8.77;4.55;;;;;;;-3.49;84.70;100152.97;5031037;28;20379;-66
2021/01/29 00:10:15;;;;;;;20.30;8.20;;;;;;;-3.49;84.72;100146.91;5014608;28;20041;-66
2021/01/29 00:12:41;;;;;;;12.48;6.63;;;;;;;-3.51;84.98;100143.53;5032096;28;20033;-66
2021/01/29 00:15:10;;;;;;;13.05;5.15;;;;;;;-3.47;84.99;100145.03;5031217;28;20033;-66
2021/01/29 00:17:36;;;;;;;11.18;4.75;;;;;;;-3.49;84.88;100146.91;5031721;28;20048;-66
2021/01/29 00:20:05;;;;;;;8.32;3.83;;;;;;;-3.45;84.88;100151.00;5031028;28;20025;-66
2021/01/29 00:22:30;;;;;;;8.50;3.70;;;;;;;-3.47;84.88;100145.88;5031904;28;20107;-66
2021/01/29 00:24:55;;;;;;;7.93;3.70;;;;;;;-3.48;84.74;100144.19;5031809;28;20447;-66
2021/01/29 00:27:21;;;;;;;6.15;3.10;;;;;;;-3.47;84.33;100140.66;5031454;28;20494;-66
2021/01/29 00:29:46;;;;;;;7.55;4.43;;;;;;;-3.44;84.55;100130.06;5014318;28;20124;-66
2021/01/29 00:32:11;;;;;;;7.57;3.80;;;;;;;-3.44;84.41;100131.84;5014267;28;20049;-66
2021/01/29 00:34:37;;;;;;;8.52;3.67;;;;;;;-3.47;84.32;100130.22;5031774;28;20047;-66
2021/01/29 00:37:02;;;;;;;8.70;3.50;;;;;;;-3.50;84.60;100135.63;5030316;28;20150;-66
2021/01/29 00:39:28;;;;;;;7.82;3.50;;;;;;;-3.55;84.53;100123.78;5031607;28;20295;-66
2021/01/29 00:41:53;;;;;;;6.80;3.33;;;;;;;-3.53;84.47;100129.75;5030133;28;20033;-66
2021/01/29 00:44:18;;;;;;;6.10;3.60;;;;;;;-3.56;84.28;100129.91;5030642;28;20042;-66
2021/01/29 00:46:44;;;;;;;17.83;4.17;;;;;;;-3.54;84.42;100134.09;5030307;28;20044;-66
2021/01/29 00:49:09;;;;;;;6.45;3.40;;;;;;;-3.55;84.58;100127.22;5031486;28;20289;-66
2021/01/29 00:51:34;;;;;;;6.57;2.70;;;;;;;-3.59;84.18;100135.31;5030518;28;20033;-66
2021/01/29 00:54:00;;;;;;;9.18;4.15;;;;;;;-3.66;84.22;100129.59;5030385;28;20098;-66
2021/01/29 00:56:32;;;;;;;5.05;3.00;;;;;;;-3.69;84.35;100127.16;5031355;28;20049;-66
2021/01/29 00:59:03;;;;;;;4.95;3.17;;;;;;;-3.72;84.65;100125.56;5030249;28;20485;-66
2021/01/29 01:01:48;;;;;;;5.55;2.78;;;;;;;-3.80;84.29;100119.09;5030359;28;20421;-66
2021/01/29 01:04:14;;;;;;;8.25;3.67;;;;;;;-3.80;84.57;100121.72;5030238;28;20033;-66
2021/01/29 01:06:41;;;;;;;5.10;2.72;;;;;;;-3.79;84.53;100123.38;5030891;28;20041;-66
2021/01/29 01:09:30;;;;;;;4.63;3.20;;;;;;;-3.80;84.58;100111.28;5030967;28;20073;-66
2021/01/29 01:11:55;;;;;;;6.25;2.92;;;;;;;-3.82;84.68;100114.81;5029974;28;20466;-66
2021/01/29 01:14:53;;;;;;;6.47;3.65;;;;;;;-3.78;85.11;100119.84;5030335;28;20084;-66
2021/01/29 01:17:28;;;;;;;8.55;3.38;;;;;;;-3.82;85.04;100112.22;5029757;28;20124;-66
2021/01/29 01:20:10;;;;;;;7.75;3.47;;;;;;;-3.80;85.16;100117.31;5015499;28;20436;-66
2021/01/29 01:22:35;;;;;;;5.15;3.30;;;;;;;-3.78;85.23;100112.03;5029908;28;20033;-66
2021/01/29 01:25:14;;;;;;;5.85;3.22;;;;;;;-3.79;85.29;100108.59;5029917;28;20072;-66
2021/01/29 01:27:41;;;;;;;7.00;2.78;;;;;;;-3.78;85.24;100104.19;5013210;28;20458;-66
2021/01/29 01:30:34;;;;;;;6.15;3.20;;;;;;;-3.78;85.37;100099.81;5029776;28;20026;-66
2021/01/29 01:33:07;;;;;;;6.00;3.25;;;;;;;-3.80;85.25;100093.84;5014171;28;20057;-66
2021/01/29 01:35:59;;;;;;;6.85;3.22;;;;;;;-3.85;84.93;100099.31;5016795;28;20039;-66
2021/01/29 01:38:34;;;;;;;8.60;4.10;;;;;;;-3.94;84.70;100099.00;5014538;28;20053;-66
2021/01/29 01:41:00;;;;;;;7.18;4.28;;;;;;;-3.98;84.89;100095.75;5029823;28;20355;-66
2021/01/29 01:43:32;;;;;;;10.32;5.72;;;;;;;-4.00;85.45;100087.16;5029705;28;20040;-66
2021/01/29 01:46:19;;;;;;;13.20;6.45;;;;;;;-3.96;85.68;100080.81;5029138;28;20045;-66
2021/01/29 01:49:10;;;;;;;11.48;6.05;;;;;;;-3.92;85.81;100086.72;5031104;28;20056;-66
2021/01/29 01:52:09;;;;;;;12.48;5.72;;;;;;;-3.92;85.38;100071.06;5029568;28;20379;-66
2021/01/29 01:55:00;;;;;;;14.63;4.97;;;;;;;-4.02;85.16;100060.31;5032363;28;20050;-66
2021/01/29 01:57:27;;;;;;;14.40;6.82;;;;;;;-3.96;85.41;100059.97;5033395;28;20095;-66
2021/01/29 02:00:16;;;;;;;13.90;6.23;;;;;;;-3.91;85.79;100060.56;5033702;28;20030;-66
2021/01/29 02:02:58;;;;;;;20.10;8.27;;;;;;;-3.90;85.82;100049.19;5018733;28;20041;-66
2021/01/29 02:05:57;;;;;;;16.02;7.75;;;;;;;-3.88;86.09;100043.91;5020980;28;20494;-66
2021/01/29 02:08:39;;;;;;;15.57;7.97;;;;;;;-3.83;86.34;100047.06;5033286;28;20029;-66
2021/01/29 02:11:19;;;;;;;14.00;7.05;;;;;;;-3.82;86.28;100044.41;5034365;28;20045;-66
2021/01/29 02:13:59;;;;;;;18.20;6.97;;;;;;;-3.74;86.67;100030.06;5018922;28;20410;-66
2021/01/29 02:16:43;;;;;;;17.48;7.35;;;;;;;-3.68;86.64;100029.69;5033145;28;20082;-66
2021/01/29 02:19:49;;;;;;;16.45;6.85;;;;;;;-3.64;86.50;100028.59;5033395;28;20120;-66
2021/01/29 02:22:41;;;;;;;16.40;6.85;;;;;;;-3.59;86.79;100020.50;5033173;28;20048;-66
2021/01/29 02:26:02;;;;;;;12.60;5.47;;;;;;;-3.48;86.52;100012.88;5034534;28;20575;-66
2021/01/29 02:28:54;;;;;;;7.63;3.72;;;;;;;-3.41;86.28;100017.63;5017553;28;20067;-66
2021/01/29 02:32:09;;;;;;;6.40;2.88;;;;;;;-3.34;86.19;100012.06;5018092;28;20045;-66
2021/01/29 02:35:01;;;;;;;6.82;3.40;;;;;;;-3.28;85.95;100014.28;5033085;28;20137;-66
2021/01/29 02:38:02;;;;;;;10.90;3.60;;;;;;;-3.24;85.63;100011.41;5032716;28;20042;-66
2021/01/29 02:41:19;;;;;;;5.80;2.70;;;;;;;-3.17;85.16;100006.66;5015149;28;20052;-66
2021/01/29 02:43:56;;;;;;;7.13;2.40;;;;;;;-3.11;84.76;100006.28;5032895;28;20037;-66
2021/01/29 02:46:50;;;;;;;6.53;2.65;;;;;;;-3.06;84.56;99996.41;5034025;28;20051;-66
2021/01/29 02:50:14;;;;;;;4.90;2.47;;;;;;;-2.97;84.19;99984.56;5033708;28;20136;-66
2021/01/29 02:53:21;;;;;;;8.38;3.05;;;;;;;-3.01;84.17;99968.22;5033086;28;20315;-66
2021/01/29 02:56:18;;;;;;;12.13;2.22;;;;;;;-2.94;84.01;99970.47;5032191;28;20073;-66
2021/01/29 02:59:51;;;;;;;5.55;1.83;;;;;;;-2.89;83.82;99952.72;5033408;28;20041;-66
2021/01/29 03:02:47;;;;;;;3.42;2.10;;;;;;;-2.87;83.13;99951.69;5019223;28;20351;-66
2021/01/29 03:05:22;;;;;;;5.32;1.40;;;;;;;-2.82;82.59;99948.78;5032247;28;20046;-66
2021/01/29 03:07:56;;;;;;;6.70;1.50;;;;;;;-2.73;82.06;99942.16;5032972;28;20065;-66
2021/01/29 03:10:57;;;;;;;4.28;1.52;;;;;;;-2.73;81.67;99948.22;5033233;28;20048;-66
2021/01/29 03:13:53;;;;;;;5.40;1.75;;;;;;;-2.68;81.41;99938.28;5032501;28;20052;-66
2021/01/29 03:16:44;;;;;;;6.32;1.48;;;;;;;-2.62;81.89;99932.69;5032285;28;20071;-77
2021/01/29 03:19:37;;;;;;;6.78;1.90;;;;;;;-2.59;81.99;99924.66;5032564;28;20107;-77
2021/01/29 03:22:28;;;;;;;5.97;1.40;;;;;;;-2.57;81.78;99933.22;5032357;28;20176;-77
2021/01/29 03:25:36;;;;;;;5.60;1.20;;;;;;;-2.53;80.90;99933.03;5030912;28;20491;-77
2021/01/29 03:28:31;;;;;;;6.20;1.50;;;;;;;-2.49;80.89;99932.72;5030997;28;20056;-77
2021/01/29 03:31:18;;;;;;;6.95;2.08;;;;;;;-2.48;80.52;99918.72;5028456;28;20048;-77
2021/01/29 03:34:09;;;;;;;5.10;1.23;;;;;;;-2.43;80.29;99923.66;5033125;28;20134;-77
2021/01/29 03:37:03;;;;;;;8.32;1.05;;;;;;;-2.40;80.39;99913.00;5033289;28;20072;-77
2021/01/29 03:39:47;;;;;;;5.22;1.30;;;;;;;-2.43;80.73;99907.97;5033597;28;20060;-77
2021/01/29 03:42:53;;;;;;;6.03;1.30;;;;;;;-2.43;80.80;99894.91;5032793;28;20111;-77
2021/01/29 03:45:43;;;;;;;5.05;0.90;;;;;;;-2.40;80.42;99882.47;5032632;28;20060;-77
2021/01/29 03:48:34;;;;;;;4.65;1.10;;;;;;;-2.38;80.06;99891.03;5032640;28;20087;-77
2021/01/29 03:51:50;;;;;;;8.25;2.25;;;;;;;-2.40;79.98;99886.84;5031929;28;20091;-77
2021/01/29 03:54:49;;;;;;;5.30;1.48;;;;;;;-2.38;79.40;99887.59;5032870;28;20036;-77
2021/01/29 03:57:38;;;;;;;1.70;0.98;;;;;;;-2.35;79.67;99890.00;5031495;28;20084;-77
2021/01/29 04:00:40;;;;;;;1.95;1.10;;;;;;;-2.34;80.00;99881.25;5032631;28;20084;-77
2021/01/29 04:03:43;;;;;;;6.18;1.70;;;;;;;-2.28;79.41;99878.19;5032398;28;20111;-77
2021/01/29 04:06:32;;;;;;;7.30;3.88;;;;;;;-2.36;79.42;99877.88;5031356;28;20052;-77
2021/01/29 04:09:42;;;;;;;2.05;0.90;;;;;;;-2.43;79.88;99874.00;5031568;28;20056;-77
2021/01/29 04:12:45;;;;;;;7.28;1.48;;;;;;;-2.34;79.65;99861.16;5032714;28;20046;-77
2021/01/29 04:15:39;;;;;;;9.25;1.90;;;;;;;-2.35;79.57;99853.41;5031900;28;20025;-77
2021/01/29 04:18:16;;;;;;;5.68;1.20;;;;;;;-2.36;79.81;99841.28;5030970;28;20052;-77
2021/01/29 04:20:45;;;;;;;5.03;1.00;;;;;;;-2.34;79.60;99844.63;5031402;28;20499;-78
2021/01/29 04:23:22;;;;;;;14.30;1.30;;;;;;;-2.35;79.34;99824.63;5032769;28;20037;-77
2021/01/29 04:25:56;;;;;;;4.78;1.33;;;;;;;-2.39;79.65;99834.47;5031279;28;20034;-77
2021/01/29 04:28:25;;;;;;;2.60;1.77;;;;;;;-2.41;79.10;99827.66;5032499;28;20467;-78
2021/01/29 04:30:54;;;;;;;5.35;1.00;;;;;;;-2.36;79.22;99812.53;5032355;28;20112;-77
2021/01/29 04:33:30;;;;;;;4.75;1.58;;;;;;;-2.37;79.27;99808.22;5031329;28;20104;-77
2021/01/29 04:35:58;;;;;;;7.13;1.83;;;;;;;-2.37;79.17;99806.44;5032349;28;20033;-77
2021/01/29 04:38:37;;;;;;;8.15;1.23;;;;;;;-2.38;79.25;99806.56;5032317;28;20033;-77
2021/01/29 04:41:05;;;;;;;5.45;1.05;;;;;;;-2.38;78.78;99809.16;5032400;28;20470;-77
2021/01/29 04:43:49;;;;;;;3.38;0.60;;;;;;;-2.33;78.76;99807.06;5032235;28;20033;-77
2021/01/29 04:46:31;;;;;;;5.43;0.88;;;;;;;-2.33;78.97;99794.84;5032056;28;20037;-77
2021/01/29 04:49:24;;;;;;;8.15;1.77;;;;;;;-2.30;78.71;99791.16;5031375;28;20037;-77
2021/01/29 04:52:14;;;;;;;4.57;0.88;;;;;;;-2.32;78.61;99785.22;5030974;28;20037;-76
2021/01/29 04:54:59;;;;;;;7.03;1.08;;;;;;;-2.25;78.54;99781.22;5031959;28;20041;-77
2021/01/29 04:57:50;;;;;;;10.15;1.92;;;;;;;-2.20;78.34;99778.31;5031699;28;20037;-77
2021/01/29 05:00:59;;;;;;;3.10;0.98;;;;;;;-2.25;77.85;99768.16;5015579;28;20037;-77
2021/01/29 05:04:12;;;;;;;6.05;1.40;;;;;;;-2.27;78.09;99772.69;5031905;28;20073;-77
2021/01/29 05:07:24;;;;;;;3.55;1.08;;;;;;;-2.26;78.07;99763.06;5031016;28;20052;-77
2021/01/29 05:10:45;;;;;;;2.15;1.08;;;;;;;-2.30;78.32;99756.34;5031802;28;20099;-77
2021/01/29 05:13:39;;;;;;;2.78;1.23;;;;;;;-2.27;78.30;99759.59;5031619;28;20030;-77
2021/01/29 05:16:26;;;;;;;3.88;1.02;;;;;;;-2.27;78.12;99746.53;5031559;28;20348;-77
2021/01/29 05:19:24;;;;;;;4.28;1.10;;;;;;;-2.27;78.30;99741.31;5030785;28;20064;-77
2021/01/29 05:22:11;;;;;;;3.88;0.90;;;;;;;-2.41;78.38;99738.78;5031567;28;20037;-77
2021/01/29 05:24:58;;;;;;;4.00;1.30;;;;;;;-2.34;78.63;99729.59;5030483;28;20179;-77
2021/01/29 05:27:54;;;;;;;5.32;1.13;;;;;;;-2.37;78.62;99714.09;5031023;28;20033;-77
2021/01/29 05:30:40;;;;;;;7.30;1.27;;;;;;;-2.33;78.77;99710.34;5031038;28;20436;-77
2021/01/29 05:33:18;;;;;;;2.53;1.10;;;;;;;-2.33;78.94;99710.34;5030680;28;20104;-77
2021/01/29 05:36:05;;;;;;;3.97;1.10;;;;;;;-2.36;78.94;99702.72;5031431;28;20337;-77
2021/01/29 05:38:46;;;;;;;3.05;0.80;;;;;;;-2.39;78.59;99689.84;5014267;28;20060;-78
2021/01/29 05:41:39;;;;;;;2.67;0.90;;;;;;;-2.35;78.87;99679.06;5031313;28;20056;-77
2021/01/29 05:44:33;;;;;;;5.28;1.00;;;;;;;-2.22;78.69;99680.84;5031291;28;20506;-77
2021/01/29 05:47:01;;;;;;;6.38;0.95;;;;;;;-2.25;78.85;99679.25;5031064;28;20042;-77
2021/01/29 05:49:39;;;;;;;3.83;0.98;;;;;;;-2.30;78.77;99673.53;5030253;28;20382;-77
2021/01/29 05:52:37;;;;;;;4.18;1.10;;;;;;;-2.30;78.98;99670.91;5031237;28;20482;-77
2021/01/29 05:55:12;;;;;;;1.30;0.70;;;;;;;-2.28;78.45;99663.78;5031382;28;20049;-77
2021/01/29 05:57:43;;;;;;;3.28;1.17;;;;;;;-2.24;78.63;99656.59;5029818;28;20091;-78
2021/01/29 06:00:21;;;;;;;1.90;0.95;;;;;;;-2.21;78.43;99667.66;5031295;28;20460;-77
2021/01/29 06:03:05;;;;;;;3.65;1.00;;;;;;;-2.25;78.30;99660.94;5030262;28;20045;-77
2021/01/29 06:05:39;;;;;;;5.70;1.63;;;;;;;-2.24;78.63;99644.34;5031198;28;20041;-77
2021/01/29 06:08:35;;;;;;;5.78;1.45;;;;;;;-2.21;79.00;99643.28;5031117;28;20041;-77
2021/01/29 06:11:17;;;;;;;3.15;1.50;;;;;;;-2.24;79.00;99636.50;5030165;28;20048;-77
2021/01/29 06:14:16;;;;;;;4.82;1.00;;;;;;;-2.21;78.84;99638.06;5031065;28;20099;-77
2021/01/29 06:17:00;;;;;;;5.07;1.10;;;;;;;-2.24;78.50;99620.81;5030819;28;20038;-78
2021/01/29 06:20:03;;;;;;;3.83;0.93;;;;;;;-2.21;78.66;99614.53;5030207;28;20350;-77
2021/01/29 06:22:57;;;;;;;7.00;1.73;;;;;;;-2.25;78.33;99619.13;5013165;28;20084;-77
2021/01/29 06:25:30;;;;;;;3.08;1.17;;;;;;;-2.23;78.67;99617.22;5030048;28;20132;-77
2021/01/29 06:28:33;;;;;;;3.30;1.60;;;;;;;-2.15;78.84;99625.38;5029986;28;20048;-77
2021/01/29 06:31:14;;;;;;;4.40;1.70;;;;;;;-2.22;77.84;99628.56;5031134;28;20040;-78
2021/01/29 06:33:58;;;;;;;2.80;1.00;;;;;;;-2.23;78.07;99632.91;5030222;28;20048;-77
2021/01/29 06:37:01;;;;;;;2.78;1.00;;;;;;;-2.21;77.59;99627.59;5030602;28;20521;-77
2021/01/29 06:39:57;;;;;;;3.53;1.50;;;;;;;-2.20;77.62;99632.72;5031108;28;20056;-76
2021/01/29 06:42:50;;;;;;;7.07;1.77;;;;;;;-2.16;77.85;99628.94;5033361;28;20120;-77
2021/01/29 06:45:31;;;;;;;4.53;0.93;;;;;;;-2.17;77.76;99632.50;5033550;28;20859;-76
2021/01/29 06:48:05;;;;;;;11.07;1.55;;;;;;;-2.15;77.35;99622.78;5033492;28;20128;-77
2021/01/29 06:50:43;;;;;;;6.22;1.77;;;;;;;-2.15;77.23;99619.31;5034498;28;20056;-76
2021/01/29 06:53:30;;;;;;;1.35;0.75;;;;;;;-2.10;77.59;99606.75;5033941;28;20042;-76
2021/01/29 06:56:27;;;;;;;6.65;1.50;;;;;;;-2.06;77.34;99602.13;5032709;28;20819;-76
2021/01/29 06:59:02;;;;;;;1.27;0.73;;;;;;;-2.06;77.27;99604.75;5033685;28;20476;-78
2021/01/29 07:01:46;;;;;;;2.50;1.55;;;;;;;-2.04;76.89;99608.09;5032713;28;20033;-77
2021/01/29 07:04:33;;;;;;;10.02;1.52;;;;;;;-2.00;76.81;99609.53;5033925;28;20371;-77
2021/01/29 07:07:11;;;;;;;2.10;0.80;;;;;;;-2.04;76.62;99595.00;5033315;28;20037;-77
2021/01/29 07:09:58;;;;;;;5.60;1.05;;;;;;;-2.01;76.32;99587.78;5033377;28;20053;-77
2021/01/29 07:12:32;;;;;;;2.45;0.98;;;;;;;-2.02;76.31;99587.88;5033805;28;20047;-77
2021/01/29 07:15:26;;;;;;;2.08;1.45;;;;;;;-2.06;76.54;99583.81;5034000;28;20375;-77
2021/01/29 07:18:15;;;;;;;3.45;1.30;;;;;;;-2.12;75.88;99583.31;5022154;28;20049;-77
2021/01/29 07:21:02;;;;;;;4.68;1.35;;;;;;;-2.10;76.34;99583.22;5033045;28;20041;-77
2021/01/29 07:23:59;;;;;;;2.50;1.35;;;;;;;-2.09;76.14;99581.44;5033194;28;20120;-77
2021/01/29 07:26:51;;;;;;;6.70;2.13;;;;;;;-2.06;76.33;99589.03;5023928;28;20045;-77
2021/01/29 07:29:30;;;;;;;4.20;1.35;;;;;;;-2.04;76.29;99574.09;5016460;28;20148;-77
2021/01/29 07:32:13;;;;;;;5.25;1.10;;;;;;;-1.96;76.41;99577.00;5033390;28;20029;-76
2021/01/29 07:34:49;;;;;;;6.28;1.48;;;;;;;-2.03;76.16;99565.31;5032605;28;20041;-66
2021/01/29 07:38:02;;;;;;;3.25;1.10;;;;;;;-2.02;76.66;99562.56;5032170;28;20083;-66
2021/01/29 07:40:53;;;;;;;6.72;1.63;;;;;;;-2.01;76.41;99556.41;5013970;28;20057;-66
2021/01/29 07:43:38;;;;;;;4.22;1.02;;;;;;;-1.97;76.76;99544.78;5033269;28;20124;-66
2021/01/29 07:46:12;;;;;;;6.25;1.65;;;;;;;-1.92;76.74;99542.66;5032782;28;20099;-66
2021/01/29 07:48:43;;;;;;;5.63;1.20;;;;;;;-1.98;77.16;99531.78;5033124;28;20037;-66
2021/01/29 07:51:30;;;;;;;8.35;2.03;;;;;;;-2.02;76.88;99531.16;5030692;28;20048;-66
2021/01/29 07:54:33;;;;;;;2.40;1.23;;;;;;;-1.98;77.59;99526.56;5032145;28;20800;-66
2021/01/29 07:57:19;;;;;;;6.05;1.00;;;;;;;-1.92;77.29;99523.47;5031429;28;20037;-66
2021/01/29 08:00:06;;;;;;;4.68;1.10;;;;;;;-1.88;77.12;99518.88;5032948;28;20450;-66
2021/01/29 08:03:02;;;;;;;3.15;1.00;;;;;;;-1.86;76.63;99515.19;5032243;28;20048;-66
2021/01/29 08:05:32;;;;;;;1.65;1.15;;;;;;;-1.83;76.89;99514.94;5032789;28;20041;-66
2021/01/29 08:08:06;;;;;;;4.00;1.27;;;;;;;-1.81;76.87;99515.69;5032664;28;20037;-66
2021/01/29 08:10:36;;;;;;;12.30;2.35;;;;;;;-1.75;76.65;99507.38;5031858;28;20124;-66
2021/01/29 08:13:22;;;;;;;4.28;1.40;;;;;;;-1.72;76.66;99501.09;5032676;28;20124;-66
2021/01/29 08:16:06;;;;;;;4.57;1.58;;;;;;;-1.62;77.02;99506.47;5032552;28;20033;-66
2021/01/29 08:18:52;;;;;;;3.25;1.30;;;;;;;-1.60;76.60;99502.78;5032418;28;20052;-66
2021/01/29 08:21:39;;;;;;;3.40;1.30;;;;;;;-1.55;77.12;99497.19;5032589;28;20418;-66
2021/01/29 08:24:25;;;;;;;4.80;1.55;;;;;;;-1.54;76.77;99491.84;5031641;28;20041;-66
2021/01/29 08:27:02;;;;;;;4.40;1.60;;;;;;;-1.52;77.12;99494.38;5031941;28;20049;-66
2021/01/29 08:30:01;;;;;;;3.47;1.63;;;;;;;-1.54;77.39;99499.72;5032411;28;20048;-66
2021/01/29 08:33:10;;;;;;;6.40;1.90;;;;;;;-1.51;77.79;99502.09;5031187;28;20048;-66
2021/01/29 08:35:38;;;;;;;6.47;2.17;;;;;;;-1.53;78.56;99508.38;5030393;28;20083;-66
2021/01/29 08:38:26;;;;;;;6.70;3.22;;;;;;;-1.40;78.21;99496.06;5028660;28;20029;-66
2021/01/29 08:41:14;;;;;;;4.25;2.58;;;;;;;-1.53;78.54;99490.06;5029789;28;20375;-66
2021/01/29 08:43:59;;;;;;;6.70;3.40;;;;;;;-1.44;78.30;99480.69;5028799;28;20037;-66
2021/01/29 08:46:42;;;;;;;4.53;2.17;;;;;;;-1.40;77.37;99493.44;5029560;28;20045;-66
2021/01/29 08:49:38;;;;;;;8.50;2.50;;;;;;;-1.34;77.51;99487.72;5028783;28;20048;-66
2021/01/29 08:52:26;;;;;;;11.63;3.42;;;;;;;-1.31;77.68;99489.28;5013083;28;20423;-66
2021/01/29 08:55:02;;;;;;;6.28;2.50;;;;;;;-1.44;76.78;99478.91;5030445;28;20037;-66
2021/01/29 08:57:50;;;;;;;10.50;3.08;;;;;;;-1.51;76.65;99488.16;5030048;28;20101;-66
2021/01/29 09:00:32;;;;;;;13.68;7.10;;;;;;;-1.40;76.81;99490.81;5031528;28;20156;-66
2021/01/29 09:03:19;;;;;;;7.78;3.80;;;;;;;-1.40;76.35;99490.81;5030058;28;20029;-66
2021/01/29 09:05:49;;;;;;;9.98;4.22;;;;;;;-1.33;76.21;99494.63;5029981;28;20088;-66
2021/01/29 09:08:21;;;;;;;5.75;2.58;;;;;;;-1.42;76.44;99479.63;5030932;28;20459;-66
2021/01/29 09:11:12;;;;;;;11.13;4.03;;;;;;;-1.22;76.59;99493.78;5031069;28;20132;-66
2021/01/29 09:13:40;;;;;;;3.97;1.88;;;;;;;-1.10;75.95;99505.09;5031102;28;20044;-66
2021/01/29 09:16:21;;;;;;;6.80;3.53;;;;;;;-1.27;76.42;99494.13;5029910;28;20037;-66
2021/01/29 09:19:07;;;;;;;4.30;2.30;;;;;;;-1.15;76.56;99491.53;5030033;28;20057;-66
2021/01/29 09:21:41;;;;;;;12.48;2.33;;;;;;;-1.24;76.48;99484.38;5030074;28;20128;-66
2021/01/29 09:24:16;;;;;;;3.65;1.75;;;;;;;-1.13;76.26;99481.78;5030071;28;20443;-66
2021/01/29 09:26:44;;;;;;;11.77;3.63;;;;;;;-1.20;76.86;99475.34;5029732;28;20040;-66
2021/01/29 09:29:18;;;;;;;4.53;1.92;;;;;;;-1.21;76.30;99471.91;5030810;28;20176;-66
2021/01/29 09:31:48;;;;;;;6.30;2.10;;;;;;;-1.21;76.83;99476.31;5013355;28;20044;-66
2021/01/29 09:34:26;;;;;;;4.80;2.28;;;;;;;-1.31;76.22;99479.63;5030731;28;20416;-66
2021/01/29 09:36:54;;;;;;;9.50;1.90;;;;;;;-1.14;76.66;99474.88;5029513;28;20104;-66
2021/01/29 09:39:27;;;;;;;4.82;1.77;;;;;;;-1.20;76.02;99478.78;5029558;28;20090;-66
2021/01/29 09:42:06;;;;;;;13.43;3.20;;;;;;;-1.34;76.10;99472.00;5030736;28;20033;-66
2021/01/29 09:44:39;;;;;;;9.13;2.05;;;;;;;-1.39;76.07;99468.91;5030968;28;20120;-66
2021/01/29 09:47:07;;;;;;;7.75;2.50;;;;;;;-1.36;76.47;99466.06;5030070;28;20055;-66
2021/01/29 09:49:36;;;;;;;7.47;2.70;;;;;;;-1.28;75.59;99461.06;5030042;28;20474;-66
2021/01/29 09:52:08;;;;;;;10.23;3.63;;;;;;;-1.28;76.24;99466.31;5030890;28;20045;-66
2021/01/29 09:54:49;;;;;;;5.07;2.22;;;;;;;-1.28;75.67;99465.47;5013713;28;20429;-66
2021/01/29 09:57:29;;;;;;;6.20;1.85;;;;;;;-1.43;76.15;99458.78;5013439;28;20115;-66
2021/01/29 10:00:13;;;;;;;8.43;2.75;;;;;;;-1.22;76.40;99467.59;5030049;28;20043;-66
2021/01/29 10:02:51;;;;;;;8.50;2.47;;;;;;;-1.21;76.09;99474.53;5030102;28;20352;-66
2021/01/29 10:05:19;;;;;;;5.40;2.22;;;;;;;-1.20;75.38;99464.88;5013444;28;20065;-66
2021/01/29 10:07:55;;;;;;;11.43;2.70;;;;;;;-1.20;75.33;99476.19;5030361;28;20049;-66
2021/01/29 10:10:40;;;;;;;6.50;3.08;;;;;;;-1.17;75.26;99472.47;5030694;28;20068;-66
2021/01/29 10:13:39;;;;;;;7.05;1.92;;;;;;;-1.20;75.75;99475.34;5030770;28;20026;-66
2021/01/29 10:16:27;;;;;;;6.95;3.75;;;;;;;-1.21;76.22;99469.28;5032571;28;20042;-66
2021/01/29 10:19:08;;;;;;;5.22;2.20;;;;;;;-1.18;75.81;99473.44;5033748;28;20049;-66
2021/01/29 10:22:24;;;;;;;5.82;2.67;;;;;;;-1.13;77.08;99472.13;5034773;28;20030;-66
2021/01/29 10:25:20;;;;;;;6.68;2.67;;;;;;;-1.04;76.79;99475.81;5034724;28;20485;-66
2021/01/29 10:27:54;;;;;;;7.97;2.97;;;;;;;-1.08;76.88;99474.38;5033562;28;20136;-66
2021/01/29 10:30:32;;;;;;;4.80;2.78;;;;;;;-1.18;76.78;99468.22;5033545;28;20036;-66
2021/01/29 10:33:23;;;;;;;6.05;1.80;;;;;;;-1.07;76.14;99476.91;5017066;28;20505;-66
2021/01/29 10:36:08;;;;;;;7.43;2.92;;;;;;;-1.11;76.20;99465.00;5033266;28;20116;-66
2021/01/29 10:38:53;;;;;;;7.57;2.58;;;;;;;-1.24;75.52;99466.91;5016316;28;20378;-66
2021/01/29 10:41:35;;;;;;;11.85;4.47;;;;;;;-1.28;75.99;99474.16;5032690;28;20056;-66
2021/01/29 10:44:17;;;;;;;3.55;1.80;;;;;;;-1.14;75.95;99469.66;5032578;28;20037;-66
2021/01/29 10:46:51;;;;;;;5.45;2.35;;;;;;;-1.24;75.71;99468.66;5015047;28;20033;-66
2021/01/29 10:49:24;;;;;;;6.63;2.17;;;;;;;-1.22;75.23;99453.69;5032588;28;20036;-66
2021/01/29 10:52:05;;;;;;;3.42;2.03;;;;;;;-1.19;75.64;99466.56;5031650;28;20037;-66
2021/01/29 10:54:37;;;;;;;8.43;2.25;;;;;;;-1.15;75.90;99465.34;5015726;28;20041;-66
2021/01/29 10:57:15;;;;;;;2.50;1.38;;;;;;;-1.09;75.46;99462.25;5032983;28;20049;-66
2021/01/29 10:59:52;;;;;;;4.88;2.22;;;;;;;-1.12;75.82;99467.75;5033256;28;20037;-66
2021/01/29 11:02:29;;;;;;;9.60;2.25;;;;;;;-1.17;75.80;99477.72;5032921;28;20041;-66
2021/01/29 11:05:00;;;;;;;8.75;2.03;;;;;;;-1.17;76.02;99477.72;5033823;28;20075;-66
2021/01/29 11:07:30;;;;;;;7.97;2.28;;;;;;;-1.18;76.07;99484.75;5016306;28;20030;-66
2021/01/29 11:10:17;;;;;;;4.13;2.00;;;;;;;-1.04;75.61;99478.44;5032680;28;20310;-66
2021/01/29 11:12:53;;;;;;;5.43;2.15;;;;;;;-1.15;75.81;99484.53;5033832;28;20049;-66
2021/01/29 11:15:24;;;;;;;4.07;2.17;;;;;;;-1.20;75.85;99478.78;5033602;28;20068;-66
2021/01/29 11:17:58;;;;;;;7.38;1.73;;;;;;;-1.07;75.64;99490.00;5032565;28;20103;-66
2021/01/29 11:20:29;;;;;;;8.65;2.53;;;;;;;-1.09;75.16;99483.22;5033714;28;20094;-66
2021/01/29 11:23:01;;;;;;;4.55;1.80;;;;;;;-0.92;75.18;99487.97;5032832;28;20038;-66
2021/01/29 11:25:43;;;;;;;5.60;2.13;;;;;;;-0.77;74.63;99487.72;5032604;28;20458;-66
2021/01/29 11:28:26;;;;;;;8.65;2.60;;;;;;;-0.88;74.31;99489.41;5033566;28;20063;-66
2021/01/29 11:31:03;;;;;;;4.65;2.03;;;;;;;-1.04;73.91;99485.47;5032551;28;20076;-66
2021/01/29 11:33:33;;;;;;;8.02;2.38;;;;;;;-0.99;73.79;99483.34;5032534;28;20448;-66
2021/01/29 11:36:40;;;;;;;4.93;2.08;;;;;;;-0.83;74.01;99477.72;5015562;28;20521;-66
2021/01/29 11:39:08;;;;;;;4.70;1.90;;;;;;;-0.73;73.35;99473.41;5011510;28;20045;-66
2021/01/29 11:41:35;;;;;;;8.55;2.20;;;;;;;-0.86;73.14;99469.16;4978891;28;20034;-66
2021/01/29 11:44:01;;;;;;;5.15;1.70;;;;;;;-0.76;73.64;99456.16;5022762;28;20119;-66
2021/01/29 11:46:36;;;;;;;7.13;1.92;;;;;;;-0.87;73.52;99461.41;5032784;28;20045;-66
2021/01/29 11:49:01;;;;;;;3.63;1.58;;;;;;;-0.91;73.74;99463.44;5033193;28;20037;-66
2021/01/29 11:51:36;;;;;;;4.00;1.80;;;;;;;-0.78;73.81;99457.22;5033355;28;20044;-66
2021/01/29 11:54:18;;;;;;;3.00;1.50;;;;;;;-0.82;73.07;99445.31;5032288;28;20037;-66
2021/01/29 11:56:56;;;;;;;2.10;1.60;;;;;;;-0.77;72.21;99443.16;5032812;28;20045;-66
2021/01/29 11:59:35;;;;;;;3.50;2.05;;;;;;;-0.74;71.04;99448.19;5031008;28;20041;-66
2021/01/29 12:02:19;;;;;;;2.00;1.23;;;;;;;-0.65;71.00;99444.81;5032563;28;20034;-66
2021/01/29 12:05:10;;;;;;;4.38;1.83;;;;;;;-0.61;70.65;99445.41;5031956;28;20045;-66
2021/01/29 12:08:06;;;;;;;3.05;1.88;;;;;;;-0.63;70.04;99440.28;5032561;28;20120;-66
2021/01/29 12:10:59;;;;;;;5.10;1.70;;;;;;;-0.59;71.42;99438.25;5031785;28;20102;-66
2021/01/29 12:13:30;;;;;;;6.13;3.30;;;;;;;-0.48;71.01;99431.19;5031805;28;20047;-66
2021/01/29 12:15:59;;;;;;;13.10;6.35;;;;;;;-0.50;70.32;99438.34;5032414;28;20114;-66
2021/01/29 12:18:28;;;;;;;13.35;6.63;;;;;;;-0.55;69.71;99426.56;5031691;28;20041;-66
2021/01/29 12:21:07;;;;;;;10.75;5.53;;;;;;;-0.55;70.04;99430.00;5032602;28;20068;-66
2021/01/29 12:24:05;;;;;;;3.33;2.40;;;;;;;-0.67;70.42;99428.38;5032633;28;20037;-66
2021/01/29 12:27:00;;;;;;;3.92;2.65;;;;;;;-0.50;70.23;99427.03;5031209;28;20140;-66
2021/01/29 12:29:46;;;;;;;4.25;1.63;;;;;;;-0.32;69.96;99422.06;5014980;28;20037;-66
2021/01/29 12:32:35;;;;;;;3.42;1.80;;;;;;;-0.60;70.13;99429.56;5030671;28;20053;-66
2021/01/29 12:35:07;;;;;;;7.10;2.55;;;;;;;-0.59;70.30;99428.59;5027000;28;20041;-66
2021/01/29 12:37:35;;;;;;;5.05;1.73;;;;;;;-0.57;70.06;99429.28;5014029;28;20064;-66
2021/01/29 12:40:20;;;;;;;4.05;2.53;;;;;;;-0.62;69.98;99423.59;5031358;28;20052;-66
2021/01/29 12:43:08;;;;;;;5.53;2.33;;;;;;;-0.57;70.90;99426.69;5031208;28;20077;-66